createdAt,value
2019-02-18T00:00:02.042Z,99.90
2019-02-18T00:02:31.275Z,99.90
2019-02-18T00:05:00.437Z,99.90
2019-02-18T00:07:29.645Z,99.90
2019-02-18T00:10:00.665Z,99.90
2019-02-18T00:12:29.916Z,99.90
2019-02-18T00:14:59.076Z,99.90
2019-02-18T00:17:28.251Z,99.90
2019-02-18T00:19:57.496Z,99.90
2019-02-18T00:22:26.705Z,99.90
2019-02-18T00:24:55.929Z,99.90
2019-02-18T00:27:25.067Z,99.90
2019-02-18T00:29:54.286Z,99.90
2019-02-18T00:32:23.543Z,99.90
2019-02-18T00:34:52.752Z,99.90
2019-02-18T00:37:24.562Z,99.90
2019-02-18T00:39:52.844Z,99.90
2019-02-18T00:42:22.234Z,99.90
2019-02-18T00:44:51.369Z,99.90
2019-02-18T00:47:20.543Z,99.90
2019-02-18T00:49:50.756Z,99.90
2019-02-18T00:52:19.900Z,99.90
2019-02-18T00:54:49.031Z,99.90
2019-02-18T00:57:18.273Z,99.90
2019-02-18T00:59:49.292Z,99.90
2019-02-18T01:02:18.603Z,99.90
2019-02-18T01:04:48.217Z,99.90
2019-02-18T01:07:17.485Z,99.90
2019-02-18T01:09:46.800Z,99.90
2019-02-18T01:12:16.068Z,99.90
2019-02-18T01:14:45.272Z,99.90
2019-02-18T01:17:14.479Z,99.90
2019-02-18T01:19:43.631Z,99.90
2019-02-18T01:22:12.798Z,99.90
2019-02-18T01:24:41.984Z,99.90
2019-02-18T01:27:11.159Z,99.90
2019-02-18T01:29:40.412Z,99.90
2019-02-18T01:32:09.519Z,99.90
2019-02-18T01:34:38.692Z,99.90
2019-02-18T01:37:07.823Z,99.90
2019-02-18T01:39:36.968Z,99.90
2019-02-18T01:42:06.088Z,99.90
2019-02-18T01:44:35.228Z,99.90
2019-02-18T01:47:04.383Z,99.90
2019-02-18T01:49:33.521Z,99.90
2019-02-18T01:52:03.212Z,99.90
2019-02-18T01:54:32.432Z,99.90
2019-02-18T01:57:01.568Z,99.90
2019-02-18T01:59:30.788Z,99.90
2019-02-18T02:01:59.930Z,99.90
2019-02-18T02:04:29.096Z,99.90
2019-02-18T02:06:58.420Z,99.90
2019-02-18T02:09:28.671Z,99.90
2019-02-18T02:11:57.901Z,99.90
2019-02-18T02:14:27.151Z,99.90
2019-02-18T02:16:56.392Z,99.90
2019-02-18T02:19:25.545Z,99.90
2019-02-18T02:21:54.757Z,99.90
2019-02-18T02:24:23.927Z,99.90
2019-02-18T02:26:53.048Z,99.90
2019-02-18T02:29:22.205Z,99.90
2019-02-18T02:31:51.368Z,99.90
2019-02-18T02:34:20.486Z,99.90
2019-02-18T02:36:49.716Z,99.90
2019-02-18T02:39:18.944Z,99.90
2019-02-18T02:41:48.124Z,99.90
2019-02-18T02:44:17.328Z,99.90
2019-02-18T02:46:46.493Z,99.90
2019-02-18T02:49:15.628Z,99.90
2019-02-18T02:51:44.753Z,99.90
2019-02-18T02:54:13.903Z,99.90
2019-02-18T02:56:43.128Z,99.90
2019-02-18T02:59:12.256Z,99.90
2019-02-18T03:01:41.525Z,99.90
2019-02-18T03:04:10.641Z,99.90
2019-02-18T03:06:40.985Z,99.90
2019-02-18T03:09:10.133Z,99.90
2019-02-18T03:11:39.281Z,99.90
2019-02-18T03:14:08.468Z,99.90
2019-02-18T03:16:37.747Z,99.90
2019-02-18T03:19:06.912Z,99.90
2019-02-18T03:21:36.051Z,99.90
2019-02-18T03:24:05.244Z,99.90
2019-02-18T03:26:34.410Z,99.90
2019-02-18T03:29:38.110Z,99.90
2019-02-18T03:32:07.300Z,99.90
2019-02-18T03:34:40.120Z,99.90
2019-02-18T03:37:09.580Z,99.90
2019-02-18T03:39:38.784Z,99.90
2019-02-18T03:42:09.457Z,99.90
2019-02-18T03:44:38.560Z,99.90
2019-02-18T03:47:07.690Z,99.90
2019-02-18T03:49:36.819Z,99.90
2019-02-18T03:52:06.049Z,99.90
2019-02-18T03:54:35.174Z,99.90
2019-02-18T03:57:04.474Z,99.90
2019-02-18T03:59:33.901Z,99.90
2019-02-18T04:02:03.021Z,99.90
2019-02-18T04:04:32.234Z,99.90
2019-02-18T04:07:01.381Z,99.90
2019-02-18T04:09:30.538Z,99.90
2019-02-18T04:11:59.669Z,99.90
2019-02-18T04:14:28.829Z,99.90
2019-02-18T04:16:58.064Z,99.90
2019-02-18T04:19:27.236Z,99.90
2019-02-18T04:21:56.348Z,99.90
2019-02-18T04:24:25.734Z,99.90
2019-02-18T04:26:54.854Z,99.90
2019-02-18T04:29:23.999Z,99.90
2019-02-18T04:31:53.227Z,99.90
2019-02-18T04:34:22.383Z,99.90
2019-02-18T04:36:51.531Z,99.90
2019-02-18T04:39:20.717Z,99.90
2019-02-18T04:41:49.864Z,99.90
2019-02-18T04:44:19.090Z,99.90
2019-02-18T04:46:48.302Z,99.90
2019-02-18T04:49:17.597Z,99.90
2019-02-18T04:51:46.841Z,99.90
2019-02-18T04:54:16.004Z,99.90
2019-02-18T04:56:46.695Z,99.90
2019-02-18T04:59:15.894Z,99.90
2019-02-18T05:01:45.110Z,99.90
2019-02-18T05:04:14.283Z,99.90
2019-02-18T05:06:43.471Z,99.90
2019-02-18T05:09:12.609Z,99.90
2019-02-18T05:11:41.731Z,99.90
2019-02-18T05:14:10.942Z,99.90
2019-02-18T05:16:40.222Z,99.90
2019-02-18T05:19:09.393Z,99.90
2019-02-18T05:21:38.565Z,99.90
2019-02-18T05:24:07.668Z,99.90
2019-02-18T05:26:37.945Z,99.90
2019-02-18T05:29:07.104Z,99.90
2019-02-18T05:31:36.299Z,99.90
2019-02-18T05:34:05.495Z,99.90
2019-02-18T05:36:34.607Z,99.90
2019-02-18T05:39:04.687Z,99.90
2019-02-18T05:41:33.904Z,99.90
2019-02-18T05:44:03.115Z,99.90
2019-02-18T05:46:32.340Z,99.90
2019-02-18T05:49:01.574Z,99.90
2019-02-18T05:51:30.797Z,99.90
2019-02-18T05:54:00.357Z,99.90
2019-02-18T05:56:29.518Z,99.90
2019-02-18T05:58:58.701Z,99.90
2019-02-18T06:01:27.938Z,99.90
2019-02-18T06:03:58.163Z,99.90
2019-02-18T06:06:27.946Z,99.90
2019-02-18T06:08:57.051Z,99.90
2019-02-18T06:11:26.209Z,99.90
2019-02-18T06:13:55.360Z,99.90
2019-02-18T06:16:24.497Z,99.90
2019-02-18T06:18:53.676Z,99.90
2019-02-18T06:21:22.895Z,99.90
2019-02-18T06:23:52.063Z,99.90
2019-02-18T06:26:21.262Z,99.90
2019-02-18T06:28:50.448Z,99.90
2019-02-18T06:31:19.596Z,99.90
2019-02-18T06:33:48.791Z,99.90
2019-02-18T06:36:18.076Z,99.90
2019-02-18T06:38:47.249Z,99.90
2019-02-18T06:41:16.463Z,99.90
2019-02-18T06:43:45.654Z,99.90
2019-02-18T06:46:27.771Z,99.90
2019-02-18T06:49:22.020Z,99.90
2019-02-18T06:51:51.270Z,99.90
2019-02-18T06:54:20.457Z,99.90
2019-02-18T06:57:07.289Z,99.90
2019-02-18T06:59:43.532Z,99.90
2019-02-18T07:02:20.457Z,99.90
2019-02-18T07:05:17.741Z,99.90
2019-02-18T07:08:11.784Z,99.90
2019-02-18T07:10:46.154Z,99.90
2019-02-18T07:13:15.513Z,99.90
2019-02-18T07:15:44.726Z,99.90
2019-02-18T07:18:13.991Z,99.90
2019-02-18T07:20:43.232Z,99.90
2019-02-18T07:23:12.403Z,99.90
2019-02-18T07:25:41.575Z,99.90
2019-02-18T07:28:10.774Z,99.90
2019-02-18T07:30:39.992Z,99.90
2019-02-18T07:33:09.372Z,99.90
2019-02-18T07:35:38.633Z,99.90
2019-02-18T07:38:07.784Z,99.90
2019-02-18T07:40:37.017Z,99.90
2019-02-18T07:43:06.165Z,99.90
2019-02-18T07:45:35.503Z,99.90
2019-02-18T07:48:04.680Z,99.90
2019-02-18T07:50:33.837Z,99.90
2019-02-18T07:53:03.013Z,99.90
2019-02-18T07:55:32.210Z,99.90
2019-02-18T07:58:01.402Z,99.90
2019-02-18T08:00:30.557Z,99.90
2019-02-18T08:02:59.798Z,99.90
2019-02-18T08:05:28.939Z,99.90
2019-02-18T08:07:58.107Z,99.90
2019-02-18T08:10:27.355Z,99.90
2019-02-18T08:12:56.693Z,99.90
2019-02-18T08:15:25.891Z,99.90
2019-02-18T08:17:55.200Z,99.90
2019-02-18T08:20:24.338Z,99.90
2019-02-18T08:22:53.519Z,99.90
2019-02-18T08:25:22.655Z,99.90
2019-02-18T08:27:51.901Z,99.90
2019-02-18T08:30:21.127Z,99.90
2019-02-18T08:32:50.385Z,99.90
2019-02-18T08:35:20.700Z,99.90
2019-02-18T08:37:49.884Z,99.90
2019-02-18T08:40:22.409Z,99.90
2019-02-18T08:42:50.153Z,99.90
2019-02-18T08:45:19.376Z,99.90
2019-02-18T08:47:48.557Z,99.90
2019-02-18T08:50:17.766Z,99.90
2019-02-18T08:52:46.901Z,99.90
2019-02-18T08:55:16.091Z,99.90
2019-02-18T08:57:45.396Z,99.90
2019-02-18T09:00:16.297Z,99.90
2019-02-18T09:02:45.542Z,99.90
2019-02-18T09:05:14.869Z,99.90
2019-02-18T09:07:44.497Z,99.90
2019-02-18T09:10:14.105Z,99.90
2019-02-18T09:12:43.344Z,99.90
2019-02-18T09:15:14.245Z,99.90
2019-02-18T09:17:43.542Z,99.90
2019-02-18T09:20:12.993Z,99.90
2019-02-18T09:23:01.102Z,99.90
2019-02-18T09:25:38.104Z,99.90
2019-02-18T09:28:07.252Z,99.90
2019-02-18T09:30:38.976Z,99.90
2019-02-18T09:33:08.260Z,99.90
2019-02-18T09:35:37.401Z,99.90
2019-02-18T09:38:06.613Z,99.90
2019-02-18T09:40:44.349Z,99.90
2019-02-18T09:43:06.687Z,99.90
2019-02-18T09:45:35.996Z,99.90
2019-02-18T09:48:05.250Z,99.90
2019-02-18T09:50:34.421Z,99.90
2019-02-18T09:53:04.916Z,99.90
2019-02-18T09:55:34.062Z,99.90
2019-02-18T09:58:04.395Z,99.90
2019-02-18T10:00:33.581Z,99.90
2019-02-18T10:03:02.944Z,99.90
2019-02-18T10:05:32.107Z,99.90
2019-02-18T10:08:01.331Z,99.90
2019-02-18T10:10:30.481Z,99.70
2019-02-18T10:12:59.849Z,99.40
2019-02-18T10:15:29.141Z,99.00
2019-02-18T10:17:58.320Z,99.00
2019-02-18T10:20:27.559Z,98.90
2019-02-18T10:22:56.763Z,98.20
2019-02-18T10:25:26.032Z,97.50
2019-02-18T10:27:55.225Z,96.90
2019-02-18T10:30:24.438Z,96.70
2019-02-18T10:32:53.682Z,96.30
2019-02-18T10:35:22.894Z,96.00
2019-02-18T10:37:55.158Z,95.90
2019-02-18T10:40:23.051Z,95.80
2019-02-18T10:42:52.284Z,95.90
2019-02-18T10:45:21.792Z,95.50
2019-02-18T10:47:51.171Z,96.00
2019-02-18T10:50:20.579Z,95.60
2019-02-18T10:52:50.969Z,95.30
2019-02-18T10:55:20.458Z,95.00
2019-02-18T10:57:49.614Z,94.90
2019-02-18T11:00:18.792Z,94.90
2019-02-18T11:02:49.154Z,95.20
2019-02-18T11:05:18.296Z,94.60
2019-02-18T11:07:47.540Z,93.90
2019-02-18T11:10:16.784Z,94.60
2019-02-18T11:12:47.578Z,92.70
2019-02-18T11:15:17.177Z,92.40
2019-02-18T11:17:46.816Z,91.20
2019-02-18T11:20:16.260Z,91.60
2019-02-18T11:22:45.604Z,91.60
2019-02-18T11:25:15.404Z,91.50
2019-02-18T11:27:44.957Z,91.00
2019-02-18T11:30:14.729Z,88.80
2019-02-18T11:32:43.877Z,88.90
2019-02-18T11:35:13.196Z,90.60
2019-02-18T11:37:42.346Z,90.00
2019-02-18T11:40:13.849Z,89.40
2019-02-18T11:42:43.156Z,86.40
2019-02-18T11:45:13.536Z,88.00
2019-02-18T11:47:42.751Z,87.20
2019-02-18T11:50:12.502Z,84.40
2019-02-18T11:52:41.682Z,81.90
2019-02-18T11:55:12.085Z,83.80
2019-02-18T11:57:41.694Z,81.40
2019-02-18T12:00:13.048Z,81.60
2019-02-18T12:02:42.374Z,82.60
2019-02-18T12:05:11.964Z,84.90
2019-02-18T12:07:41.189Z,80.10
2019-02-18T12:10:10.695Z,83.10
2019-02-18T12:12:40.321Z,78.20
2019-02-18T12:15:10.392Z,81.50
2019-02-18T12:17:39.629Z,76.00
2019-02-18T12:20:11.108Z,77.30
2019-02-18T12:22:40.405Z,82.40
2019-02-18T12:25:10.048Z,80.50
2019-02-18T12:27:39.649Z,82.90
2019-02-18T12:30:10.137Z,78.30
2019-02-18T12:32:39.367Z,75.60
2019-02-18T12:35:08.637Z,77.60
2019-02-18T12:37:37.875Z,74.90
2019-02-18T12:40:08.660Z,80.50
2019-02-18T12:42:38.126Z,75.30
2019-02-18T12:45:09.459Z,73.40
2019-02-18T12:47:38.605Z,74.40
2019-02-18T12:50:07.989Z,79.10
2019-02-18T12:52:37.254Z,76.90
2019-02-18T12:55:06.804Z,73.90
2019-02-18T12:57:36.492Z,73.50
2019-02-18T13:00:07.508Z,74.50
2019-02-18T13:02:43.649Z,76.00
2019-02-18T13:05:08.314Z,79.80
2019-02-18T13:07:37.656Z,80.20
2019-02-18T13:10:07.204Z,77.00
2019-02-18T13:12:36.389Z,78.00
2019-02-18T13:15:07.312Z,74.60
2019-02-18T13:17:36.720Z,74.70
2019-02-18T13:20:08.113Z,72.80
2019-02-18T13:22:37.319Z,75.70
2019-02-18T13:25:06.748Z,75.90
2019-02-18T13:27:36.089Z,74.20
2019-02-18T13:30:09.312Z,72.50
2019-02-18T13:32:38.654Z,73.90
2019-02-18T13:35:07.982Z,74.40
2019-02-18T13:37:37.424Z,72.70
2019-02-18T13:40:06.883Z,71.60
2019-02-18T13:42:36.037Z,73.30
2019-02-18T13:45:06.158Z,73.10
2019-02-18T13:47:35.436Z,70.80
2019-02-18T13:50:05.126Z,72.80
2019-02-18T13:52:34.356Z,72.20
2019-02-18T13:55:03.702Z,72.20
2019-02-18T13:57:33.079Z,71.60
2019-02-18T14:00:02.796Z,72.40
2019-02-18T14:02:32.154Z,71.20
2019-02-18T14:05:01.441Z,71.60
2019-02-18T14:07:30.742Z,74.10
2019-02-18T14:10:00.220Z,71.40
2019-02-18T14:12:30.767Z,70.30
2019-02-18T14:15:00.301Z,71.20
2019-02-18T14:17:29.564Z,67.30
2019-02-18T14:19:58.857Z,65.60
2019-02-18T14:22:28.095Z,65.70
2019-02-18T14:24:57.386Z,68.00
2019-02-18T14:27:26.644Z,66.80
2019-02-18T14:29:55.917Z,65.70
2019-02-18T14:32:25.133Z,66.90
2019-02-18T14:34:54.481Z,65.20
2019-02-18T14:37:23.934Z,60.90
2019-02-18T14:39:53.193Z,59.00
2019-02-18T14:42:24.489Z,63.00
2019-02-18T14:44:53.287Z,66.60
2019-02-18T14:47:22.549Z,65.10
2019-02-18T14:49:51.792Z,65.50
2019-02-18T14:52:21.322Z,63.80
2019-02-18T14:54:50.616Z,64.60
2019-02-18T14:57:21.334Z,62.80
2019-02-18T14:59:50.493Z,61.10
2019-02-18T15:02:20.990Z,60.50
2019-02-18T15:04:50.276Z,61.30
2019-02-18T15:07:19.501Z,62.30
2019-02-18T15:09:48.793Z,60.90
2019-02-18T15:12:18.764Z,67.30
2019-02-18T15:14:47.967Z,65.90
2019-02-18T15:17:17.276Z,64.90
2019-02-18T15:19:46.574Z,64.90
2019-02-18T15:22:15.853Z,63.60
2019-02-18T15:24:45.250Z,66.40
2019-02-18T15:27:16.101Z,67.10
2019-02-18T15:29:45.303Z,67.00
2019-02-18T15:32:14.596Z,70.80
2019-02-18T15:34:43.814Z,68.40
2019-02-18T15:37:13.329Z,73.80
2019-02-18T15:39:42.611Z,72.20
2019-02-18T15:42:12.200Z,73.90
2019-02-18T15:44:41.477Z,76.60
2019-02-18T15:47:10.733Z,78.80
2019-02-18T15:49:39.901Z,78.20
2019-02-18T15:52:09.440Z,78.50
2019-02-18T15:54:38.654Z,76.90
2019-02-18T15:57:08.015Z,75.70
2019-02-18T15:59:37.377Z,78.50
2019-02-18T16:02:08.189Z,78.10
2019-02-18T16:04:38.953Z,78.80
2019-02-18T16:07:08.176Z,80.10
2019-02-18T16:09:37.433Z,79.90
2019-02-18T16:12:06.683Z,82.10
2019-02-18T16:14:36.977Z,83.80
2019-02-18T16:17:06.337Z,83.50
2019-02-18T16:19:35.608Z,85.30
2019-02-18T16:22:04.788Z,86.20
2019-02-18T16:24:34.049Z,87.70
2019-02-18T16:27:03.221Z,87.70
2019-02-18T16:29:32.721Z,88.70
2019-02-18T16:32:01.965Z,88.90
2019-02-18T16:34:31.372Z,89.70
2019-02-18T16:37:00.673Z,90.50
2019-02-18T16:39:29.986Z,89.00
2019-02-18T16:41:59.656Z,89.30
2019-02-18T16:44:28.837Z,90.00
2019-02-18T16:46:58.102Z,88.70
2019-02-18T16:49:27.314Z,89.20
2019-02-18T16:51:59.502Z,90.30
2019-02-18T16:54:29.023Z,90.70
2019-02-18T16:56:58.315Z,90.70
2019-02-18T16:59:27.534Z,91.90
2019-02-18T17:01:56.753Z,92.40
2019-02-18T17:04:27.333Z,96.20
2019-02-18T17:06:57.995Z,99.80
2019-02-18T17:09:27.277Z,96.80
2019-02-18T17:11:56.706Z,93.90
2019-02-18T17:14:26.061Z,94.30
2019-02-18T17:16:55.406Z,93.30
2019-02-18T17:19:24.801Z,93.80
2019-02-18T17:21:54.263Z,93.90
2019-02-18T17:24:23.910Z,93.90
2019-02-18T17:26:53.485Z,95.10
2019-02-18T17:29:22.684Z,95.20
2019-02-18T17:31:52.041Z,95.00
2019-02-18T17:34:21.368Z,94.80
2019-02-18T17:36:50.688Z,94.70
2019-02-18T17:39:22.911Z,94.80
2019-02-18T17:41:52.479Z,94.70
2019-02-18T17:44:21.797Z,94.70
2019-02-18T17:46:51.067Z,94.60
2019-02-18T17:49:20.364Z,95.50
2019-02-18T17:51:49.581Z,95.20
2019-02-18T17:54:18.773Z,95.50
2019-02-18T17:56:48.173Z,95.20
2019-02-18T17:59:17.479Z,95.60
2019-02-18T18:01:46.837Z,95.80
2019-02-18T18:04:16.181Z,95.70
2019-02-18T18:06:45.549Z,96.10
2019-02-18T18:09:15.011Z,96.10
2019-02-18T18:11:44.282Z,96.30
2019-02-18T18:14:13.539Z,96.60
2019-02-18T18:16:42.771Z,96.50
2019-02-18T18:19:12.216Z,96.10
2019-02-18T18:21:41.592Z,96.60
2019-02-18T18:24:10.949Z,96.50
2019-02-18T18:26:40.281Z,96.50
2019-02-18T18:29:10.993Z,97.10
2019-02-18T18:31:40.311Z,97.10
2019-02-18T18:34:09.732Z,96.80
2019-02-18T18:36:40.159Z,96.70
2019-02-18T18:39:09.437Z,96.70
2019-02-18T18:41:38.817Z,97.00
2019-02-18T18:44:08.163Z,96.90
2019-02-18T18:46:37.493Z,96.50
2019-02-18T18:49:06.706Z,95.90
2019-02-18T18:51:36.422Z,96.00
2019-02-18T18:54:05.828Z,95.90
2019-02-18T18:56:36.399Z,96.30
2019-02-18T18:59:05.808Z,95.60
2019-02-18T19:01:35.138Z,95.80
2019-02-18T19:04:04.416Z,96.30
2019-02-18T19:06:35.723Z,96.10
2019-02-18T19:09:05.333Z,96.10
2019-02-18T19:11:34.664Z,96.90
2019-02-18T19:14:05.783Z,96.60
2019-02-18T19:16:35.054Z,96.70
2019-02-18T19:19:04.926Z,96.90
2019-02-18T19:21:34.269Z,97.10
2019-02-18T19:24:03.708Z,96.90
2019-02-18T19:26:33.124Z,97.10
2019-02-18T19:29:02.371Z,97.30
2019-02-18T19:31:31.754Z,96.90
2019-02-18T19:34:01.059Z,96.40
2019-02-18T19:36:32.215Z,96.30
2019-02-18T19:39:03.486Z,97.20
2019-02-18T19:41:33.287Z,97.20
2019-02-18T19:44:02.606Z,97.20
2019-02-18T19:46:34.012Z,96.80
2019-02-18T19:49:03.594Z,96.20
2019-02-18T19:51:33.029Z,96.20
2019-02-18T19:54:02.530Z,96.20
2019-02-18T19:56:31.862Z,96.60
2019-02-18T19:59:01.266Z,97.10
2019-02-18T20:01:30.697Z,97.30
2019-02-18T20:04:00.021Z,97.30
2019-02-18T20:06:29.430Z,97.40
2019-02-18T20:08:58.774Z,97.40
2019-02-18T20:11:30.025Z,97.30
2019-02-18T20:14:00.732Z,97.00
2019-02-18T20:16:30.270Z,97.20
2019-02-18T20:18:59.563Z,97.40
2019-02-18T20:21:30.010Z,97.90
2019-02-18T20:23:59.665Z,98.50
2019-02-18T20:26:28.970Z,98.50
2019-02-18T20:28:58.648Z,98.60
2019-02-18T20:31:27.997Z,98.50
2019-02-18T20:33:57.312Z,98.70
2019-02-18T20:36:26.616Z,98.50
2019-02-18T20:38:56.133Z,98.90
2019-02-18T20:41:25.471Z,99.20
2019-02-18T20:43:54.889Z,99.30
2019-02-18T20:46:24.269Z,99.30
2019-02-18T20:48:53.623Z,99.50
2019-02-18T20:51:23.021Z,99.90
2019-02-18T20:53:52.572Z,99.90
2019-02-18T20:56:21.955Z,99.90
2019-02-18T20:58:52.722Z,99.90
2019-02-18T21:01:22.068Z,99.90
2019-02-18T21:03:51.441Z,99.90
2019-02-18T21:06:20.859Z,99.90
2019-02-18T21:08:50.146Z,99.90
2019-02-18T21:11:19.935Z,99.90
2019-02-18T21:13:49.214Z,99.90
2019-02-18T21:16:18.541Z,99.90
2019-02-18T21:18:47.803Z,99.90
2019-02-18T21:21:17.064Z,99.90
2019-02-18T21:23:46.501Z,99.90
2019-02-18T21:26:16.158Z,99.90
2019-02-18T21:28:45.847Z,99.90
2019-02-18T21:31:15.340Z,99.90
2019-02-18T21:33:46.405Z,99.90
2019-02-18T21:36:15.709Z,99.90
2019-02-18T21:38:45.185Z,99.90
2019-02-18T21:41:14.483Z,99.90
2019-02-18T21:43:43.943Z,99.90
2019-02-18T21:46:13.243Z,99.90
2019-02-18T21:48:43.772Z,99.90
2019-02-18T21:51:13.000Z,99.90
2019-02-18T21:53:42.368Z,99.90
2019-02-18T21:56:11.719Z,99.90
2019-02-18T21:58:41.128Z,99.90
2019-02-18T22:01:10.485Z,99.90
2019-02-18T22:03:39.803Z,99.90
2019-02-18T22:06:08.968Z,99.90
2019-02-18T22:08:38.133Z,99.90
2019-02-18T22:11:07.452Z,99.90
2019-02-18T22:13:36.702Z,99.90
2019-02-18T22:16:05.947Z,99.90
2019-02-18T22:18:35.135Z,99.90
2019-02-18T22:21:04.275Z,99.90
2019-02-18T22:23:33.573Z,99.90
2019-02-18T22:26:03.239Z,99.90
2019-02-18T22:28:32.585Z,99.90
2019-02-18T22:31:01.791Z,99.90
2019-02-18T22:33:30.965Z,99.90
2019-02-18T22:36:00.184Z,99.90
2019-02-18T22:38:30.695Z,99.90
2019-02-18T22:41:00.345Z,99.90
2019-02-18T22:43:29.632Z,99.90
2019-02-18T22:45:58.781Z,99.90
2019-02-18T22:48:28.088Z,99.90
2019-02-18T22:50:57.331Z,99.90
2019-02-18T22:53:26.535Z,99.90
2019-02-18T22:55:55.728Z,99.90
2019-02-18T22:58:25.012Z,99.90
2019-02-18T23:00:58.461Z,99.90
2019-02-18T23:03:27.940Z,99.90
2019-02-18T23:05:57.230Z,99.90
2019-02-18T23:08:26.483Z,99.90
2019-02-18T23:10:55.778Z,99.90
2019-02-18T23:13:24.970Z,99.90
2019-02-18T23:15:54.337Z,99.90
2019-02-18T23:18:23.582Z,99.90
2019-02-18T23:20:52.860Z,99.90
2019-02-18T23:23:22.292Z,99.90
2019-02-18T23:25:51.545Z,99.90
2019-02-18T23:28:20.966Z,99.90
2019-02-18T23:30:50.148Z,99.90
2019-02-18T23:33:19.315Z,99.90
2019-02-18T23:35:48.604Z,99.90
2019-02-18T23:38:17.758Z,99.90
2019-02-18T23:40:46.929Z,99.90
2019-02-18T23:43:16.208Z,99.90
2019-02-18T23:45:45.399Z,99.90
2019-02-18T23:48:14.608Z,99.90
2019-02-18T23:50:43.809Z,99.90
2019-02-18T23:53:13.141Z,99.90
2019-02-18T23:55:42.335Z,99.90
2019-02-18T23:58:13.361Z,99.90
